Pagrindinis puslapis
METAR-TAF:

METAR-TAF

Oro uostai :

Takna, Peru

platuma: 18-04S, ilguma: 070-18W, Aukštis: 468 m

Dabartinis oras

Ataskaita buvo paskelbta 16 valandos ir 11 minutes, ne 19:00 UTC
Vėjas 9 kt iš Pietvakarių
Temperatūra 21°C
Drėgmė 69%
Slėgis 1016 hPa
Matomumas 10 km arba daugiau
nėra debesų žemiau 1500 m ir nėra kamuolinių lietaus debesų

METAR: SPTN 281900Z 22009KT CAVOK 21/15 Q1016 RMK PP000

Laikas: 06:11 (11:11 UTC)

Prognozė

Ataskaita buvo paskelbta 21 valandos ir 11 minutes, ne 14:00 UTC
Prognozė galioja nuo 28 metu 12 UTC su 29 metu 12 UTC
Vėjas 5 kt iš Šiaurės Rytų
Matomumas: 9000 m
Nuo 28 metu 1600 UTC
Vėjas 10 kt iš Pietvakarių
Matomumas 10 km arba daugiau
nėra debesų žemiau 1500 m ir nėra kamuolinių lietaus debesų
Nuo 29 metu 0000 UTC
Vėjas 5 kt iš Vakarų/Pietvakarių
Matomumas: 9000 m
Su prošvaistėmis ne aukštis 4000 ft

TAF: SPTN 281400Z 2812/2912 04005KT 9000 NSC TX22/2819Z TN13/2910Z FM281600 22010KT CAVOK FM290000 24005KT 9000 BKN040

Orai ataskaitas ir orų prognozės (METAR, TAF).

turimą stotys yra geltonos ir raudonos taškus žemėlapyje.

Perkelti pele per norėdami pamatyti stoties vardą.

Tada spustelėkite, norėdami matyti oro stebėjimo ir prognozės.

Norėdami pakeisti žemėlapį: spustelėkite ant žalios mygtukų su juodo kryžiaus žemyn,; žalią mygtuką su brūkšneliu, jei norite nutolinti; arba žalių rodyklių gretimoms žemėlapius.


METAR-TAF: